Portada
METAR-TAF:

METAR-TAF

Aeropuertos :

Aeropuerto de Begumpet

Hyderabad, India

latitud: 17-27N, longitud: 078-28E, altitud: 530 m

Observación

El informe se hizo hace 18 minutos, a las 13:00 UTC
Viento 5 kt del este
Temperatura 25°C
Humedad 65%
Presión 1015 hPa
Visibilidad: 6000 m
Nubes dispersas a una altura de 1500 ft

METAR: VOHY 171300Z 10005KT 6000 SCT015 25/18 Q1015 TEMPO 5000 HZ

Hora: 18:48 (13:18 UTC)

Pronóstico

El informe se hizo hace 2 horas y 18 minutos, a las 11:00 UTC
Pronóstico válido del 17 a las 12 UTC al 17 a las 18 UTC
Viento 5 kt del sureste
Visibilidad: 5000 m
Escasas nubes a una altura de 1500 ft
neblina
Temporalmente
del 17 a las 16 UTC al 17 a las 21 UTC
Viento 6 kt del este-sureste
Visibilidad: 5000 m
Escasas nubes a una altura de 2500 ft
Nubes dispersas a una altura de 12000 ft
calima

TAF: VOHY 171100Z 1712/1718 13005KT 5000 BR FEW015 TEMPO 1716/1721 12006KT 5000 HZ FEW025 SCT120

Observaciones y pronósticos meteorológicos de más de 4000 aeropuertos (mensajes METAR y TAF).

Los puntos amarillos y rojos representan las estaciones disponibles.

Ponga el ratón en el punto deseado para ver el nombre de la estación.

Haga clic para ver las observaciones y los pronósticos meteorológicos.

Para cambiar el mapa : haga clic en los botones verdes con una cruz de color negro para hacer un zoom, en el botón verde con un guión para alejar o en las flechas verdes para mapas adyacentes.


METAR-TAF: